Other Surface Observations
Issued by NWS Great Falls, MT

Home | Current Version | Previous Version | Text Only | Print | Product List | Glossary On
Versions: 1 2 3 4 5 6 7 8 9 10 11 12 13 14 15 16 17 18 19 20 21 22 23 24 25 26 27 28 29 30 31 32 33 34 35 36 37 38 39 40 41 42 43 44 45 46 47 48 49 50
000
SXUS55 KTFX 301329
OSOTFX
AREA AWOS OBSERVATIONS
NATIONAL WEATHER SERVICE GREAT FALLS MT
0729 AM MDT SAT JUL 30 2016

METAR KPWD 301330Z AUTO 00000KT 4SM 17/15 A2991 RMK PLENTYWOOD
METAR KPO1 301330Z AUTO 00000KT 10SM 14/12 A2990 RMK POPLAR
METAR K1S3 301330Z AUTO 08007KT 10SM 19/12 A2987 RMK FORSYTH
METAR KS71 301330Z AUTO 09008KT 10SM 18/16 A2981 RMK CHINOOK
METAR K38S 301330Z AUTO 00000KT 10SM 13/08 A2999 RMK DEER LODGE
METAR K6S5 301330Z AUTO 16005KT 10SM 18/08 A2990 RMK HAMILTON
METAR KS59 301330Z AUTO 00000KT 10SM 12/08 A2981 RMK LIBBY
METAR K88M 301330Z AUTO 00000KT 10SM 18/11 A2981 RMK EUREKA



USA.gov is the U.S. government's official web portal to all federal, state and local government web resources and services.